sensor_id;sensor_type;location;lat;lon;timestamp;P1;durP1;ratioP1;P2;durP2;ratioP2
76344;SDS011;65160;50.504;3.666;2022-11-18T00:00:03;6.97;;;2.90;;
76344;SDS011;65160;50.504;3.666;2022-11-18T00:02:29;6.18;;;3.08;;
76344;SDS011;65160;50.504;3.666;2022-11-18T00:04:55;9.20;;;3.60;;
76344;SDS011;65160;50.504;3.666;2022-11-18T00:07:20;9.38;;;3.30;;
76344;SDS011;65160;50.504;3.666;2022-11-18T00:09:46;6.93;;;3.15;;
76344;SDS011;65160;50.504;3.666;2022-11-18T00:12:11;8.38;;;3.40;;
76344;SDS011;65160;50.504;3.666;2022-11-18T00:14:55;8.65;;;3.72;;
76344;SDS011;65160;50.504;3.666;2022-11-18T00:17:20;8.68;;;3.90;;
76344;SDS011;65160;50.504;3.666;2022-11-18T00:19:46;8.88;;;3.38;;
76344;SDS011;65160;50.504;3.666;2022-11-18T00:22:11;7.97;;;3.35;;
76344;SDS011;65160;50.504;3.666;2022-11-18T00:24:38;7.88;;;3.22;;
76344;SDS011;65160;50.504;3.666;2022-11-18T00:27:04;9.75;;;3.75;;
76344;SDS011;65160;50.504;3.666;2022-11-18T00:29:29;7.13;;;2.92;;
76344;SDS011;65160;50.504;3.666;2022-11-18T00:31:55;7.38;;;3.40;;
76344;SDS011;65160;50.504;3.666;2022-11-18T00:34:22;8.13;;;3.38;;
76344;SDS011;65160;50.504;3.666;2022-11-18T00:36:48;7.22;;;2.63;;
76344;SDS011;65160;50.504;3.666;2022-11-18T00:39:15;6.32;;;2.60;;
76344;SDS011;65160;50.504;3.666;2022-11-18T00:41:41;6.55;;;2.53;;
76344;SDS011;65160;50.504;3.666;2022-11-18T00:44:25;6.45;;;1.98;;
76344;SDS011;65160;50.504;3.666;2022-11-18T00:46:51;10.57;;;2.67;;
76344;SDS011;65160;50.504;3.666;2022-11-18T00:49:16;5.85;;;2.03;;
76344;SDS011;65160;50.504;3.666;2022-11-18T00:51:42;9.30;;;2.58;;
76344;SDS011;65160;50.504;3.666;2022-11-18T00:54:07;5.07;;;1.95;;
76344;SDS011;65160;50.504;3.666;2022-11-18T00:56:33;5.80;;;1.83;;
76344;SDS011;65160;50.504;3.666;2022-11-18T00:58:58;6.40;;;2.40;;
76344;SDS011;65160;50.504;3.666;2022-11-18T01:01:24;7.10;;;2.10;;
76344;SDS011;65160;50.504;3.666;2022-11-18T01:03:50;5.57;;;1.88;;
76344;SDS011;65160;50.504;3.666;2022-11-18T01:06:15;6.45;;;2.33;;
76344;SDS011;65160;50.504;3.666;2022-11-18T01:08:40;4.15;;;1.73;;
76344;SDS011;65160;50.504;3.666;2022-11-18T01:11:06;5.93;;;1.98;;
76344;SDS011;65160;50.504;3.666;2022-11-18T01:13:50;5.32;;;1.90;;
76344;SDS011;65160;50.504;3.666;2022-11-18T01:16:17;5.97;;;2.30;;
76344;SDS011;65160;50.504;3.666;2022-11-18T01:18:44;5.97;;;2.03;;
76344;SDS011;65160;50.504;3.666;2022-11-18T01:21:09;6.80;;;2.30;;
76344;SDS011;65160;50.504;3.666;2022-11-18T01:23:35;6.05;;;2.40;;
76344;SDS011;65160;50.504;3.666;2022-11-18T01:26:03;5.25;;;2.20;;
76344;SDS011;65160;50.504;3.666;2022-11-18T01:28:30;5.65;;;1.83;;
76344;SDS011;65160;50.504;3.666;2022-11-18T01:31:02;4.85;;;2.40;;
76344;SDS011;65160;50.504;3.666;2022-11-18T01:33:29;5.60;;;2.47;;
76344;SDS011;65160;50.504;3.666;2022-11-18T01:35:54;5.25;;;2.03;;
76344;SDS011;65160;50.504;3.666;2022-11-18T01:38:19;5.10;;;2.20;;
76344;SDS011;65160;50.504;3.666;2022-11-18T01:40:45;5.03;;;1.90;;
76344;SDS011;65160;50.504;3.666;2022-11-18T01:43:15;6.80;;;2.20;;
76344;SDS011;65160;50.504;3.666;2022-11-18T01:45:43;4.40;;;2.25;;
76344;SDS011;65160;50.504;3.666;2022-11-18T01:48:27;6.32;;;2.47;;
76344;SDS011;65160;50.504;3.666;2022-11-18T01:51:02;6.32;;;2.40;;
76344;SDS011;65160;50.504;3.666;2022-11-18T01:53:36;5.30;;;2.15;;
76344;SDS011;65160;50.504;3.666;2022-11-18T01:56:06;6.65;;;2.50;;
76344;SDS011;65160;50.504;3.666;2022-11-18T01:58:39;8.05;;;2.30;;
76344;SDS011;65160;50.504;3.666;2022-11-18T02:01:07;8.60;;;2.58;;
76344;SDS011;65160;50.504;3.666;2022-11-18T02:03:33;9.00;;;3.15;;
76344;SDS011;65160;50.504;3.666;2022-11-18T02:05:59;7.90;;;3.65;;
76344;SDS011;65160;50.504;3.666;2022-11-18T02:08:27;8.57;;;4.35;;
76344;SDS011;65160;50.504;3.666;2022-11-18T02:10:53;9.50;;;4.30;;
76344;SDS011;65160;50.504;3.666;2022-11-18T02:13:19;7.95;;;4.65;;
76344;SDS011;65160;50.504;3.666;2022-11-18T02:18:28;8.25;;;4.28;;
76344;SDS011;65160;50.504;3.666;2022-11-18T02:21:17;8.93;;;3.70;;
76344;SDS011;65160;50.504;3.666;2022-11-18T02:26:50;10.77;;;3.95;;
76344;SDS011;65160;50.504;3.666;2022-11-18T02:29:25;6.15;;;2.65;;
76344;SDS011;65160;50.504;3.666;2022-11-18T02:32:21;8.30;;;2.92;;
76344;SDS011;65160;50.504;3.666;2022-11-18T02:42:51;6.65;;;2.53;;
76344;SDS011;65160;50.504;3.666;2022-11-18T02:45:28;6.95;;;2.72;;
76344;SDS011;65160;50.504;3.666;2022-11-18T02:47:55;6.13;;;2.22;;
76344;SDS011;65160;50.504;3.666;2022-11-18T02:52:55;6.38;;;2.80;;
76344;SDS011;65160;50.504;3.666;2022-11-18T02:55:22;8.20;;;2.78;;
76344;SDS011;65160;50.504;3.666;2022-11-18T02:57:51;6.68;;;2.85;;
76344;SDS011;65160;50.504;3.666;2022-11-18T03:00:17;7.28;;;2.42;;
76344;SDS011;65160;50.504;3.666;2022-11-18T03:02:44;5.70;;;2.35;;
76344;SDS011;65160;50.504;3.666;2022-11-18T03:05:23;7.45;;;2.85;;
76344;SDS011;65160;50.504;3.666;2022-11-18T03:07:55;5.28;;;2.58;;
76344;SDS011;65160;50.504;3.666;2022-11-18T03:10:28;10.90;;;3.10;;
76344;SDS011;65160;50.504;3.666;2022-11-18T03:16:11;6.97;;;2.90;;
76344;SDS011;65160;50.504;3.666;2022-11-18T03:18:41;9.52;;;3.25;;
76344;SDS011;65160;50.504;3.666;2022-11-18T03:21:36;6.22;;;2.78;;
76344;SDS011;65160;50.504;3.666;2022-11-18T03:24:10;9.20;;;3.08;;
76344;SDS011;65160;50.504;3.666;2022-11-18T03:26:59;5.70;;;2.78;;
76344;SDS011;65160;50.504;3.666;2022-11-18T03:29:42;5.88;;;2.72;;
76344;SDS011;65160;50.504;3.666;2022-11-18T03:32:17;6.68;;;3.17;;
76344;SDS011;65160;50.504;3.666;2022-11-18T03:34:49;6.25;;;3.00;;
76344;SDS011;65160;50.504;3.666;2022-11-18T03:37:19;8.40;;;3.22;;
76344;SDS011;65160;50.504;3.666;2022-11-18T03:39:54;6.95;;;3.28;;
76344;SDS011;65160;50.504;3.666;2022-11-18T03:42:28;10.02;;;2.70;;
76344;SDS011;65160;50.504;3.666;2022-11-18T03:45:04;7.78;;;3.03;;
76344;SDS011;65160;50.504;3.666;2022-11-18T03:47:58;7.45;;;3.30;;
76344;SDS011;65160;50.504;3.666;2022-11-18T03:50:34;6.15;;;2.50;;
76344;SDS011;65160;50.504;3.666;2022-11-18T03:53:35;9.90;;;3.10;;
76344;SDS011;65160;50.504;3.666;2022-11-18T03:56:05;10.65;;;3.05;;
76344;SDS011;65160;50.504;3.666;2022-11-18T03:58:36;15.48;;;3.17;;
76344;SDS011;65160;50.504;3.666;2022-11-18T04:01:16;6.82;;;2.83;;
76344;SDS011;65160;50.504;3.666;2022-11-18T04:03:46;10.48;;;3.40;;
76344;SDS011;65160;50.504;3.666;2022-11-18T04:06:17;7.90;;;2.83;;
76344;SDS011;65160;50.504;3.666;2022-11-18T04:08:52;8.70;;;3.10;;
76344;SDS011;65160;50.504;3.666;2022-11-18T04:11:25;9.70;;;2.83;;
76344;SDS011;65160;50.504;3.666;2022-11-18T04:14:15;7.85;;;2.92;;
76344;SDS011;65160;50.504;3.666;2022-11-18T04:16:43;6.18;;;2.53;;
76344;SDS011;65160;50.504;3.666;2022-11-18T04:19:09;6.85;;;3.25;;
76344;SDS011;65160;50.504;3.666;2022-11-18T04:21:35;6.55;;;3.08;;
76344;SDS011;65160;50.504;3.666;2022-11-18T04:24:00;6.22;;;2.78;;
76344;SDS011;65160;50.504;3.666;2022-11-18T04:26:26;9.25;;;2.65;;
76344;SDS011;65160;50.504;3.666;2022-11-18T04:28:51;9.20;;;3.22;;
76344;SDS011;65160;50.504;3.666;2022-11-18T04:31:17;7.50;;;3.28;;
76344;SDS011;65160;50.504;3.666;2022-11-18T04:33:42;8.43;;;3.08;;
76344;SDS011;65160;50.504;3.666;2022-11-18T04:36:08;8.63;;;2.90;;
76344;SDS011;65160;50.504;3.666;2022-11-18T04:38:33;9.60;;;3.17;;
76344;SDS011;65160;50.504;3.666;2022-11-18T04:40:59;6.97;;;2.50;;
76344;SDS011;65160;50.504;3.666;2022-11-18T04:43:24;9.95;;;2.97;;
76344;SDS011;65160;50.504;3.666;2022-11-18T04:45:49;5.78;;;2.40;;
76344;SDS011;65160;50.504;3.666;2022-11-18T04:48:15;7.25;;;2.70;;
76344;SDS011;65160;50.504;3.666;2022-11-18T04:50:40;7.53;;;2.97;;
76344;SDS011;65160;50.504;3.666;2022-11-18T04:53:05;9.18;;;3.03;;
76344;SDS011;65160;50.504;3.666;2022-11-18T04:55:34;8.57;;;2.40;;
76344;SDS011;65160;50.504;3.666;2022-11-18T04:58:00;7.00;;;3.35;;
76344;SDS011;65160;50.504;3.666;2022-11-18T05:00:25;9.88;;;3.15;;
76344;SDS011;65160;50.504;3.666;2022-11-18T05:02:50;7.97;;;2.75;;
76344;SDS011;65160;50.504;3.666;2022-11-18T05:05:16;7.57;;;2.80;;
76344;SDS011;65160;50.504;3.666;2022-11-18T05:07:41;7.32;;;2.80;;
76344;SDS011;65160;50.504;3.666;2022-11-18T05:10:07;8.82;;;2.60;;
76344;SDS011;65160;50.504;3.666;2022-11-18T05:12:32;9.35;;;2.50;;
76344;SDS011;65160;50.504;3.666;2022-11-18T05:15:13;8.93;;;2.85;;
76344;SDS011;65160;50.504;3.666;2022-11-18T05:17:39;6.95;;;2.92;;
76344;SDS011;65160;50.504;3.666;2022-11-18T05:20:05;6.93;;;3.03;;
76344;SDS011;65160;50.504;3.666;2022-11-18T05:22:31;8.18;;;3.20;;
76344;SDS011;65160;50.504;3.666;2022-11-18T05:24:56;9.38;;;3.00;;
76344;SDS011;65160;50.504;3.666;2022-11-18T05:27:21;7.03;;;3.20;;
76344;SDS011;65160;50.504;3.666;2022-11-18T05:29:47;6.75;;;3.13;;
76344;SDS011;65160;50.504;3.666;2022-11-18T05:32:12;8.85;;;3.13;;
76344;SDS011;65160;50.504;3.666;2022-11-18T05:34:39;6.75;;;2.63;;
76344;SDS011;65160;50.504;3.666;2022-11-18T05:37:05;8.98;;;3.25;;
76344;SDS011;65160;50.504;3.666;2022-11-18T05:39:31;5.45;;;2.45;;
76344;SDS011;65160;50.504;3.666;2022-11-18T05:41:57;9.10;;;2.72;;
76344;SDS011;65160;50.504;3.666;2022-11-18T05:44:42;7.78;;;3.50;;
76344;SDS011;65160;50.504;3.666;2022-11-18T05:47:08;6.40;;;2.60;;
76344;SDS011;65160;50.504;3.666;2022-11-18T05:49:33;7.40;;;2.60;;
76344;SDS011;65160;50.504;3.666;2022-11-18T05:51:59;13.20;;;3.17;;
76344;SDS011;65160;50.504;3.666;2022-11-18T05:54:24;9.50;;;3.35;;
76344;SDS011;65160;50.504;3.666;2022-11-18T05:56:50;8.52;;;2.78;;
76344;SDS011;65160;50.504;3.666;2022-11-18T05:59:16;7.53;;;3.15;;
76344;SDS011;65160;50.504;3.666;2022-11-18T06:01:42;6.55;;;2.45;;
76344;SDS011;65160;50.504;3.666;2022-11-18T06:06:54;7.45;;;2.90;;
76344;SDS011;65160;50.504;3.666;2022-11-18T06:09:26;6.55;;;2.92;;
76344;SDS011;65160;50.504;3.666;2022-11-18T06:11:56;12.27;;;3.27;;
76344;SDS011;65160;50.504;3.666;2022-11-18T06:14:25;8.40;;;3.20;;
76344;SDS011;65160;50.504;3.666;2022-11-18T06:16:56;9.75;;;3.40;;
76344;SDS011;65160;50.504;3.666;2022-11-18T06:19:24;9.13;;;2.60;;
76344;SDS011;65160;50.504;3.666;2022-11-18T06:21:50;7.85;;;2.90;;
76344;SDS011;65160;50.504;3.666;2022-11-18T06:24:15;8.15;;;3.10;;
76344;SDS011;65160;50.504;3.666;2022-11-18T06:26:42;7.00;;;2.35;;
76344;SDS011;65160;50.504;3.666;2022-11-18T06:29:08;10.75;;;3.00;;
76344;SDS011;65160;50.504;3.666;2022-11-18T06:31:36;11.68;;;2.95;;
76344;SDS011;65160;50.504;3.666;2022-11-18T06:34:02;14.55;;;3.47;;
76344;SDS011;65160;50.504;3.666;2022-11-18T06:36:27;7.60;;;2.72;;
76344;SDS011;65160;50.504;3.666;2022-11-18T06:38:52;7.78;;;3.75;;
76344;SDS011;65160;50.504;3.666;2022-11-18T06:41:18;7.40;;;3.20;;
76344;SDS011;65160;50.504;3.666;2022-11-18T06:43:43;8.35;;;2.95;;
76344;SDS011;65160;50.504;3.666;2022-11-18T06:46:12;10.73;;;4.57;;
76344;SDS011;65160;50.504;3.666;2022-11-18T06:49:00;8.05;;;2.72;;
76344;SDS011;65160;50.504;3.666;2022-11-18T06:51:26;6.90;;;2.60;;
76344;SDS011;65160;50.504;3.666;2022-11-18T06:53:52;10.30;;;3.10;;
76344;SDS011;65160;50.504;3.666;2022-11-18T06:56:18;7.13;;;2.60;;
76344;SDS011;65160;50.504;3.666;2022-11-18T06:58:45;11.82;;;3.38;;
76344;SDS011;65160;50.504;3.666;2022-11-18T07:01:15;9.80;;;3.03;;
76344;SDS011;65160;50.504;3.666;2022-11-18T07:03:42;8.75;;;3.30;;
76344;SDS011;65160;50.504;3.666;2022-11-18T07:06:09;7.22;;;2.70;;
76344;SDS011;65160;50.504;3.666;2022-11-18T07:08:37;14.18;;;3.58;;
76344;SDS011;65160;50.504;3.666;2022-11-18T07:11:04;8.70;;;3.30;;
76344;SDS011;65160;50.504;3.666;2022-11-18T07:13:33;10.60;;;2.70;;
76344;SDS011;65160;50.504;3.666;2022-11-18T07:16:03;7.18;;;3.00;;
76344;SDS011;65160;50.504;3.666;2022-11-18T07:18:33;6.70;;;3.22;;
76344;SDS011;65160;50.504;3.666;2022-11-18T07:21:02;12.88;;;5.18;;
76344;SDS011;65160;50.504;3.666;2022-11-18T07:23:29;12.32;;;3.55;;
76344;SDS011;65160;50.504;3.666;2022-11-18T07:25:55;8.68;;;3.45;;
76344;SDS011;65160;50.504;3.666;2022-11-18T07:28:21;8.85;;;3.10;;
76344;SDS011;65160;50.504;3.666;2022-11-18T07:30:46;10.68;;;3.88;;
76344;SDS011;65160;50.504;3.666;2022-11-18T07:33:12;12.43;;;3.40;;
76344;SDS011;65160;50.504;3.666;2022-11-18T07:35:37;8.48;;;3.30;;
76344;SDS011;65160;50.504;3.666;2022-11-18T07:38:02;8.75;;;2.72;;
76344;SDS011;65160;50.504;3.666;2022-11-18T07:40:28;10.05;;;3.55;;
76344;SDS011;65160;50.504;3.666;2022-11-18T07:42:53;7.25;;;3.17;;
76344;SDS011;65160;50.504;3.666;2022-11-18T07:45:18;6.88;;;2.80;;
76344;SDS011;65160;50.504;3.666;2022-11-18T07:47:44;8.00;;;2.50;;
76344;SDS011;65160;50.504;3.666;2022-11-18T07:50:09;10.30;;;2.88;;
76344;SDS011;65160;50.504;3.666;2022-11-18T07:52:35;14.63;;;3.78;;
76344;SDS011;65160;50.504;3.666;2022-11-18T07:55:00;10.63;;;3.25;;
76344;SDS011;65160;50.504;3.666;2022-11-18T07:57:25;18.35;;;5.95;;
76344;SDS011;65160;50.504;3.666;2022-11-18T07:59:51;7.70;;;2.67;;
76344;SDS011;65160;50.504;3.666;2022-11-18T08:02:16;10.73;;;3.75;;
76344;SDS011;65160;50.504;3.666;2022-11-18T08:04:42;12.63;;;4.57;;
76344;SDS011;65160;50.504;3.666;2022-11-18T08:07:10;12.88;;;3.55;;
76344;SDS011;65160;50.504;3.666;2022-11-18T08:09:35;8.88;;;3.58;;
76344;SDS011;65160;50.504;3.666;2022-11-18T08:12:01;12.07;;;3.70;;
76344;SDS011;65160;50.504;3.666;2022-11-18T08:14:26;9.73;;;2.60;;
76344;SDS011;65160;50.504;3.666;2022-11-18T08:16:52;8.85;;;3.50;;
76344;SDS011;65160;50.504;3.666;2022-11-18T08:19:19;11.48;;;3.33;;
76344;SDS011;65160;50.504;3.666;2022-11-18T08:21:44;11.38;;;3.58;;
76344;SDS011;65160;50.504;3.666;2022-11-18T08:24:10;9.60;;;3.30;;
76344;SDS011;65160;50.504;3.666;2022-11-18T08:26:35;10.02;;;4.00;;
76344;SDS011;65160;50.504;3.666;2022-11-18T08:29:01;13.25;;;4.47;;
76344;SDS011;65160;50.504;3.666;2022-11-18T08:31:27;8.43;;;2.85;;
76344;SDS011;65160;50.504;3.666;2022-11-18T08:33:55;12.27;;;2.90;;
76344;SDS011;65160;50.504;3.666;2022-11-18T08:36:21;9.65;;;2.97;;
76344;SDS011;65160;50.504;3.666;2022-11-18T08:38:49;7.47;;;2.83;;
76344;SDS011;65160;50.504;3.666;2022-11-18T08:41:15;8.88;;;2.67;;
76344;SDS011;65160;50.504;3.666;2022-11-18T08:43:44;8.37;;;2.90;;
76344;SDS011;65160;50.504;3.666;2022-11-18T08:46:10;7.53;;;2.45;;
76344;SDS011;65160;50.504;3.666;2022-11-18T08:48:36;6.75;;;2.30;;
76344;SDS011;65160;50.504;3.666;2022-11-18T08:51:01;10.30;;;2.83;;
76344;SDS011;65160;50.504;3.666;2022-11-18T08:53:27;7.18;;;2.53;;
76344;SDS011;65160;50.504;3.666;2022-11-18T08:55:56;8.20;;;2.85;;
76344;SDS011;65160;50.504;3.666;2022-11-18T08:58:22;10.57;;;2.85;;
76344;SDS011;65160;50.504;3.666;2022-11-18T09:00:48;8.40;;;3.83;;
76344;SDS011;65160;50.504;3.666;2022-11-18T09:03:14;8.10;;;2.85;;
76344;SDS011;65160;50.504;3.666;2022-11-18T09:05:39;6.72;;;2.88;;
76344;SDS011;65160;50.504;3.666;2022-11-18T09:08:04;10.23;;;3.15;;
76344;SDS011;65160;50.504;3.666;2022-11-18T09:10:30;9.82;;;3.70;;
76344;SDS011;65160;50.504;3.666;2022-11-18T09:12:55;10.77;;;3.05;;
76344;SDS011;65160;50.504;3.666;2022-11-18T09:15:21;8.98;;;2.92;;
76344;SDS011;65160;50.504;3.666;2022-11-18T09:17:48;9.02;;;2.97;;
76344;SDS011;65160;50.504;3.666;2022-11-18T09:20:15;10.38;;;2.75;;
76344;SDS011;65160;50.504;3.666;2022-11-18T09:22:41;10.27;;;2.55;;
76344;SDS011;65160;50.504;3.666;2022-11-18T09:25:07;9.27;;;3.80;;
76344;SDS011;65160;50.504;3.666;2022-11-18T09:27:32;11.00;;;2.85;;
76344;SDS011;65160;50.504;3.666;2022-11-18T09:29:58;8.35;;;2.83;;
76344;SDS011;65160;50.504;3.666;2022-11-18T09:32:23;8.00;;;2.53;;
76344;SDS011;65160;50.504;3.666;2022-11-18T09:34:49;6.85;;;2.85;;
76344;SDS011;65160;50.504;3.666;2022-11-18T09:37:14;9.57;;;2.45;;
76344;SDS011;65160;50.504;3.666;2022-11-18T09:39:40;7.70;;;2.88;;
76344;SDS011;65160;50.504;3.666;2022-11-18T09:42:14;5.90;;;1.90;;
76344;SDS011;65160;50.504;3.666;2022-11-18T09:44:46;6.68;;;2.47;;
76344;SDS011;65160;50.504;3.666;2022-11-18T09:47:28;4.93;;;1.88;;
76344;SDS011;65160;50.504;3.666;2022-11-18T09:50:04;7.25;;;1.98;;
76344;SDS011;65160;50.504;3.666;2022-11-18T09:52:44;5.97;;;1.90;;
76344;SDS011;65160;50.504;3.666;2022-11-18T09:55:27;7.50;;;2.92;;
76344;SDS011;65160;50.504;3.666;2022-11-18T09:57:54;7.10;;;2.42;;
76344;SDS011;65160;50.504;3.666;2022-11-18T10:00:22;6.82;;;1.98;;
76344;SDS011;65160;50.504;3.666;2022-11-18T10:03:06;4.72;;;1.98;;
76344;SDS011;65160;50.504;3.666;2022-11-18T10:08:27;8.38;;;2.20;;
76344;SDS011;65160;50.504;3.666;2022-11-18T10:11:17;5.25;;;1.48;;
76344;SDS011;65160;50.504;3.666;2022-11-18T10:19:34;7.15;;;1.92;;
76344;SDS011;65160;50.504;3.666;2022-11-18T10:25:06;6.10;;;1.75;;
76344;SDS011;65160;50.504;3.666;2022-11-18T10:27:40;7.13;;;1.80;;
76344;SDS011;65160;50.504;3.666;2022-11-18T10:30:25;9.52;;;1.75;;
76344;SDS011;65160;50.504;3.666;2022-11-18T10:33:00;7.13;;;1.70;;
76344;SDS011;65160;50.504;3.666;2022-11-18T10:35:34;6.30;;;1.73;;
76344;SDS011;65160;50.504;3.666;2022-11-18T10:40:45;5.88;;;2.25;;
76344;SDS011;65160;50.504;3.666;2022-11-18T10:43:41;6.85;;;1.60;;
76344;SDS011;65160;50.504;3.666;2022-11-18T10:46:16;7.43;;;1.50;;
76344;SDS011;65160;50.504;3.666;2022-11-18T10:49:09;5.18;;;1.38;;
76344;SDS011;65160;50.504;3.666;2022-11-18T10:51:39;5.88;;;1.45;;
76344;SDS011;65160;50.504;3.666;2022-11-18T10:54:19;10.50;;;1.80;;
76344;SDS011;65160;50.504;3.666;2022-11-18T10:56:50;5.97;;;1.50;;
76344;SDS011;65160;50.504;3.666;2022-11-18T10:59:27;6.68;;;1.45;;
76344;SDS011;65160;50.504;3.666;2022-11-18T11:02:15;5.22;;;1.20;;
76344;SDS011;65160;50.504;3.666;2022-11-18T11:04:45;7.57;;;1.40;;
76344;SDS011;65160;50.504;3.666;2022-11-18T11:12:30;6.03;;;1.50;;
76344;SDS011;65160;50.504;3.666;2022-11-18T11:14:59;6.88;;;1.50;;
76344;SDS011;65160;50.504;3.666;2022-11-18T11:17:30;4.78;;;1.50;;
76344;SDS011;65160;50.504;3.666;2022-11-18T11:20:04;5.90;;;2.15;;
76344;SDS011;65160;50.504;3.666;2022-11-18T11:22:36;4.55;;;1.25;;
76344;SDS011;65160;50.504;3.666;2022-11-18T11:25:05;5.53;;;1.38;;
76344;SDS011;65160;50.504;3.666;2022-11-18T11:27:53;6.07;;;2.17;;
76344;SDS011;65160;50.504;3.666;2022-11-18T11:30:28;6.65;;;1.52;;
76344;SDS011;65160;50.504;3.666;2022-11-18T11:38:36;5.07;;;1.40;;
76344;SDS011;65160;50.504;3.666;2022-11-18T11:41:15;6.60;;;1.80;;
76344;SDS011;65160;50.504;3.666;2022-11-18T11:49:52;5.93;;;1.70;;
76344;SDS011;65160;50.504;3.666;2022-11-18T11:52:32;5.72;;;1.35;;
76344;SDS011;65160;50.504;3.666;2022-11-18T12:00:39;5.35;;;1.83;;
76344;SDS011;65160;50.504;3.666;2022-11-18T12:06:12;7.72;;;1.58;;
76344;SDS011;65160;50.504;3.666;2022-11-18T12:08:39;7.60;;;1.95;;
76344;SDS011;65160;50.504;3.666;2022-11-18T12:11:25;6.63;;;2.58;;
76344;SDS011;65160;50.504;3.666;2022-11-18T12:13:59;9.05;;;2.38;;
76344;SDS011;65160;50.504;3.666;2022-11-18T12:16:44;6.18;;;1.60;;
76344;SDS011;65160;50.504;3.666;2022-11-18T12:19:18;7.95;;;2.00;;
76344;SDS011;65160;50.504;3.666;2022-11-18T12:27:10;5.57;;;2.80;;
76344;SDS011;65160;50.504;3.666;2022-11-18T12:29:59;6.57;;;2.00;;
76344;SDS011;65160;50.504;3.666;2022-11-18T12:32:29;8.20;;;1.77;;
76344;SDS011;65160;50.504;3.666;2022-11-18T12:37:58;10.45;;;2.28;;
76344;SDS011;65160;50.504;3.666;2022-11-18T12:43:04;10.73;;;3.03;;
76344;SDS011;65160;50.504;3.666;2022-11-18T12:45:51;5.30;;;1.60;;
76344;SDS011;65160;50.504;3.666;2022-11-18T12:58:49;6.43;;;2.08;;
76344;SDS011;65160;50.504;3.666;2022-11-18T13:01:20;5.85;;;1.77;;
76344;SDS011;65160;50.504;3.666;2022-11-18T13:06:33;5.57;;;1.60;;
76344;SDS011;65160;50.504;3.666;2022-11-18T13:09:03;6.65;;;1.80;;
76344;SDS011;65160;50.504;3.666;2022-11-18T13:11:32;6.60;;;1.60;;
76344;SDS011;65160;50.504;3.666;2022-11-18T13:17:30;5.97;;;1.90;;
76344;SDS011;65160;50.504;3.666;2022-11-18T13:22:58;8.77;;;2.50;;
76344;SDS011;65160;50.504;3.666;2022-11-18T13:25:44;6.47;;;1.48;;
76344;SDS011;65160;50.504;3.666;2022-11-18T13:28:16;8.98;;;1.83;;
76344;SDS011;65160;50.504;3.666;2022-11-18T13:30:50;8.25;;;1.58;;
76344;SDS011;65160;50.504;3.666;2022-11-18T13:33:37;7.20;;;1.70;;
76344;SDS011;65160;50.504;3.666;2022-11-18T13:36:13;7.60;;;1.90;;
76344;SDS011;65160;50.504;3.666;2022-11-18T13:39:03;5.28;;;1.50;;
76344;SDS011;65160;50.504;3.666;2022-11-18T13:41:30;5.20;;;1.73;;
76344;SDS011;65160;50.504;3.666;2022-11-18T13:44:18;6.63;;;2.30;;
76344;SDS011;65160;50.504;3.666;2022-11-18T13:46:47;7.55;;;2.05;;
76344;SDS011;65160;50.504;3.666;2022-11-18T13:49:17;7.55;;;2.03;;
76344;SDS011;65160;50.504;3.666;2022-11-18T13:51:46;5.50;;;2.00;;
76344;SDS011;65160;50.504;3.666;2022-11-18T13:54:14;7.50;;;1.98;;
76344;SDS011;65160;50.504;3.666;2022-11-18T13:56:45;5.68;;;2.17;;
76344;SDS011;65160;50.504;3.666;2022-11-18T13:59:15;6.70;;;2.17;;
76344;SDS011;65160;50.504;3.666;2022-11-18T14:01:44;5.82;;;2.03;;
76344;SDS011;65160;50.504;3.666;2022-11-18T14:04:18;10.90;;;1.90;;
76344;SDS011;65160;50.504;3.666;2022-11-18T14:06:45;9.32;;;1.90;;
76344;SDS011;65160;50.504;3.666;2022-11-18T14:11:57;9.20;;;2.20;;
76344;SDS011;65160;50.504;3.666;2022-11-18T14:14:39;13.52;;;3.45;;
76344;SDS011;65160;50.504;3.666;2022-11-18T14:19:49;9.25;;;2.60;;
76344;SDS011;65160;50.504;3.666;2022-11-18T14:22:18;10.15;;;3.05;;
76344;SDS011;65160;50.504;3.666;2022-11-18T14:27:38;5.93;;;2.30;;
76344;SDS011;65160;50.504;3.666;2022-11-18T14:35:58;5.65;;;1.90;;
76344;SDS011;65160;50.504;3.666;2022-11-18T14:41:10;9.43;;;1.92;;
76344;SDS011;65160;50.504;3.666;2022-11-18T14:43:36;7.93;;;2.17;;
76344;SDS011;65160;50.504;3.666;2022-11-18T14:46:03;8.20;;;2.70;;
76344;SDS011;65160;50.504;3.666;2022-11-18T14:48:31;7.65;;;2.75;;
76344;SDS011;65160;50.504;3.666;2022-11-18T14:50:57;5.72;;;2.28;;
76344;SDS011;65160;50.504;3.666;2022-11-18T14:53:23;5.80;;;2.00;;
76344;SDS011;65160;50.504;3.666;2022-11-18T14:55:49;5.65;;;1.45;;
76344;SDS011;65160;50.504;3.666;2022-11-18T14:58:16;5.35;;;1.55;;
76344;SDS011;65160;50.504;3.666;2022-11-18T15:00:43;5.45;;;1.88;;
76344;SDS011;65160;50.504;3.666;2022-11-18T15:03:10;6.72;;;2.30;;
76344;SDS011;65160;50.504;3.666;2022-11-18T15:05:36;8.10;;;2.17;;
76344;SDS011;65160;50.504;3.666;2022-11-18T15:08:03;6.28;;;2.15;;
76344;SDS011;65160;50.504;3.666;2022-11-18T15:10:29;8.35;;;2.10;;
76344;SDS011;65160;50.504;3.666;2022-11-18T15:12:54;6.78;;;1.83;;
76344;SDS011;65160;50.504;3.666;2022-11-18T15:15:19;5.75;;;1.55;;
76344;SDS011;65160;50.504;3.666;2022-11-18T15:17:45;5.85;;;1.80;;
76344;SDS011;65160;50.504;3.666;2022-11-18T15:20:13;6.15;;;1.67;;
76344;SDS011;65160;50.504;3.666;2022-11-18T15:22:41;5.30;;;1.75;;
76344;SDS011;65160;50.504;3.666;2022-11-18T15:25:07;4.95;;;1.90;;
76344;SDS011;65160;50.504;3.666;2022-11-18T15:27:33;6.50;;;2.28;;
76344;SDS011;65160;50.504;3.666;2022-11-18T15:29:58;6.43;;;3.05;;
76344;SDS011;65160;50.504;3.666;2022-11-18T15:32:24;7.18;;;2.20;;
76344;SDS011;65160;50.504;3.666;2022-11-18T15:34:50;8.18;;;2.67;;
76344;SDS011;65160;50.504;3.666;2022-11-18T15:37:15;6.55;;;2.40;;
76344;SDS011;65160;50.504;3.666;2022-11-18T15:39:41;5.82;;;2.10;;
76344;SDS011;65160;50.504;3.666;2022-11-18T15:42:07;7.68;;;2.35;;
76344;SDS011;65160;50.504;3.666;2022-11-18T15:44:33;10.73;;;2.13;;
76344;SDS011;65160;50.504;3.666;2022-11-18T15:46:59;7.53;;;1.90;;
76344;SDS011;65160;50.504;3.666;2022-11-18T15:49:25;9.63;;;2.47;;
76344;SDS011;65160;50.504;3.666;2022-11-18T15:51:51;5.60;;;2.13;;
76344;SDS011;65160;50.504;3.666;2022-11-18T15:54:16;6.10;;;2.33;;
76344;SDS011;65160;50.504;3.666;2022-11-18T15:56:42;5.68;;;2.05;;
76344;SDS011;65160;50.504;3.666;2022-11-18T15:59:08;7.13;;;2.92;;
76344;SDS011;65160;50.504;3.666;2022-11-18T16:01:36;6.55;;;2.72;;
76344;SDS011;65160;50.504;3.666;2022-11-18T16:04:06;8.20;;;2.97;;
76344;SDS011;65160;50.504;3.666;2022-11-18T16:06:33;8.18;;;3.33;;
76344;SDS011;65160;50.504;3.666;2022-11-18T16:08:59;7.72;;;3.33;;
76344;SDS011;65160;50.504;3.666;2022-11-18T16:11:25;5.30;;;2.83;;
76344;SDS011;65160;50.504;3.666;2022-11-18T16:14:10;10.45;;;3.17;;
76344;SDS011;65160;50.504;3.666;2022-11-18T16:16:38;13.48;;;7.00;;
76344;SDS011;65160;50.504;3.666;2022-11-18T16:19:05;10.60;;;4.65;;
76344;SDS011;65160;50.504;3.666;2022-11-18T16:21:33;11.10;;;4.07;;
76344;SDS011;65160;50.504;3.666;2022-11-18T16:24:00;8.90;;;3.38;;
76344;SDS011;65160;50.504;3.666;2022-11-18T16:26:28;7.50;;;3.33;;
76344;SDS011;65160;50.504;3.666;2022-11-18T16:28:54;8.90;;;3.78;;
76344;SDS011;65160;50.504;3.666;2022-11-18T16:31:20;6.68;;;3.55;;
76344;SDS011;65160;50.504;3.666;2022-11-18T16:34:05;6.43;;;2.90;;
76344;SDS011;65160;50.504;3.666;2022-11-18T16:36:32;6.95;;;3.25;;
76344;SDS011;65160;50.504;3.666;2022-11-18T16:39:02;12.25;;;3.55;;
76344;SDS011;65160;50.504;3.666;2022-11-18T16:41:32;12.23;;;6.13;;
76344;SDS011;65160;50.504;3.666;2022-11-18T16:43:58;13.63;;;6.93;;
76344;SDS011;65160;50.504;3.666;2022-11-18T16:46:27;13.02;;;6.32;;
76344;SDS011;65160;50.504;3.666;2022-11-18T16:48:54;12.05;;;6.60;;